Disclaimer

Please do not use the information listed here in-flight or in-navigation, as they are not provided to us by the airports but are provided by volunteers, so they might be outdated.

Search


Regions


Airport information page

Radio informations:
Common traffic adv. frequency (CTAF) - 122.1 MHz

Airport informations:
Latitude: 26° 33' 58.94" S
Longitude: 027° 57' 38.72" E
Elevation: 4846 feet - 1477 meters
Operating hours: N/A
Operating agency: Municipal
Timezone: UTC+2
Fuel: Jet A1, without icing nhibitor.

100/130 MIL Spec, low lead, aviation gasoline (BLUE)

Runway information:
03/21 - 5266 x 72 feet< - >1605 x 22 meters
15/33 - 3724 x 52 feet< - >1135 x 16 meters

Recent METARs:
FAVV 130300Z AUTO 33001KT //// // ////// 16/11 Q1020
FAVV 130300Z AUTO 33001KT //// // ////// 16/11 Q1020
FAVV 130300Z AUTO 33001KT //// // ////// 16/11 Q1020

Airport on the map: